createdAt,value
2022-08-16T00:00:20.403Z,95.88
2022-08-16T00:01:28.966Z,95.90
2022-08-16T00:02:40.932Z,96.40
2022-08-16T00:03:47.131Z,96.18
2022-08-16T00:04:52.033Z,96.39
2022-08-16T00:05:57.491Z,96.35
2022-08-16T00:07:02.039Z,96.44
2022-08-16T00:08:08.247Z,96.96
2022-08-16T00:09:12.907Z,96.62
2022-08-16T00:10:21.292Z,96.77
2022-08-16T00:11:26.454Z,96.98
2022-08-16T00:12:32.170Z,96.89
2022-08-16T00:13:41.793Z,97.01
2022-08-16T00:14:46.851Z,97.15
2022-08-16T00:15:51.666Z,97.33
2022-08-16T00:17:12.329Z,97.39
2022-08-16T00:18:29.945Z,97.52
2022-08-16T00:19:41.537Z,97.83
2022-08-16T00:20:48.767Z,97.85
2022-08-16T00:22:00.959Z,97.91
2022-08-16T00:23:08.496Z,97.97
2022-08-16T00:24:31.342Z,97.80
2022-08-16T00:26:35.977Z,97.61
2022-08-16T00:27:06.099Z,97.52
2022-08-16T00:28:13.326Z,97.69
2022-08-16T00:29:18.157Z,98.07
2022-08-16T00:30:28.725Z,98.03
2022-08-16T00:31:59.624Z,98.09
2022-08-16T00:33:01.080Z,98.00
2022-08-16T00:34:05.615Z,98.32
2022-08-16T00:35:16.047Z,98.38
2022-08-16T00:36:20.450Z,98.36
2022-08-16T00:37:56.174Z,98.76
2022-08-16T00:38:51.086Z,98.59
2022-08-16T00:39:58.210Z,98.97
2022-08-16T00:41:03.109Z,98.90
2022-08-16T00:42:10.503Z,98.70
2022-08-16T00:43:42.549Z,99.31
2022-08-16T00:44:59.016Z,99.11
2022-08-16T00:46:34.929Z,99.27
2022-08-16T00:47:48.994Z,99.20
2022-08-16T00:48:55.165Z,99.09
2022-08-16T00:51:58.344Z,99.20
2022-08-16T00:53:02.359Z,99.37
2022-08-16T00:54:06.889Z,99.10
2022-08-16T00:55:14.819Z,99.51
2022-08-16T00:56:56.766Z,99.88
2022-08-16T00:58:05.614Z,99.61
2022-08-16T00:59:23.684Z,99.55
2022-08-16T01:00:32.635Z,99.74
2022-08-16T01:01:37.838Z,99.96
2022-08-16T01:02:41.833Z,100.00
2022-08-16T01:03:54.341Z,100.00
2022-08-16T01:05:09.679Z,100.00
2022-08-16T01:06:40.560Z,100.00
2022-08-16T01:07:51.976Z,100.00
2022-08-16T01:08:59.869Z,100.00
2022-08-16T01:10:16.094Z,100.00
2022-08-16T01:11:23.458Z,100.00
2022-08-16T01:12:28.428Z,100.00
2022-08-16T01:13:37.726Z,100.00
2022-08-16T01:14:51.142Z,100.00
2022-08-16T01:16:10.479Z,100.00
2022-08-16T01:17:17.999Z,100.00
2022-08-16T01:18:39.762Z,100.00
2022-08-16T01:19:57.157Z,100.00
2022-08-16T01:21:33.943Z,100.00
2022-08-16T01:23:09.062Z,100.00
2022-08-16T01:24:54.023Z,100.00
2022-08-16T01:26:33.728Z,100.00
2022-08-16T01:27:39.266Z,100.00
2022-08-16T01:28:49.500Z,100.00
2022-08-16T01:30:20.522Z,100.00
2022-08-16T01:31:31.058Z,100.00
2022-08-16T01:32:44.052Z,100.00
2022-08-16T01:34:08.497Z,100.00
2022-08-16T01:35:39.874Z,100.00
2022-08-16T01:36:45.610Z,100.00
2022-08-16T01:38:49.041Z,100.00
2022-08-16T01:40:03.784Z,100.00
2022-08-16T01:41:32.018Z,100.00
2022-08-16T01:42:37.463Z,100.00
2022-08-16T01:43:54.215Z,100.00
2022-08-16T01:45:06.013Z,100.00
2022-08-16T01:46:37.565Z,100.00
2022-08-16T01:47:53.287Z,100.00
2022-08-16T01:49:13.007Z,100.00
2022-08-16T01:50:42.342Z,100.00
2022-08-16T01:52:02.840Z,100.00
2022-08-16T01:53:12.077Z,100.00
2022-08-16T01:54:31.000Z,100.00
2022-08-16T01:55:42.579Z,100.00
2022-08-16T01:57:00.441Z,100.00
2022-08-16T01:58:17.020Z,100.00
2022-08-16T01:59:33.284Z,100.00
2022-08-16T02:00:40.779Z,100.00
2022-08-16T02:01:54.475Z,100.00
2022-08-16T02:03:05.982Z,100.00
2022-08-16T02:04:13.566Z,100.00
2022-08-16T02:05:46.593Z,100.00
2022-08-16T02:07:14.303Z,100.00
2022-08-16T02:08:33.002Z,100.00
2022-08-16T02:09:41.436Z,100.00
2022-08-16T02:10:47.212Z,100.00
2022-08-16T02:12:40.133Z,100.00
2022-08-16T02:13:27.635Z,100.00
2022-08-16T02:14:34.500Z,100.00
2022-08-16T02:15:43.036Z,100.00
2022-08-16T02:16:52.400Z,100.00
2022-08-16T02:18:02.729Z,100.00
2022-08-16T02:19:16.172Z,100.00
2022-08-16T02:20:26.095Z,100.00
2022-08-16T02:21:32.397Z,100.00
2022-08-16T02:22:39.304Z,100.00
2022-08-16T02:23:44.193Z,100.00
2022-08-16T02:24:50.597Z,100.00
2022-08-16T02:25:59.484Z,100.00
2022-08-16T02:27:05.723Z,100.00
2022-08-16T02:28:10.556Z,100.00
2022-08-16T02:29:21.612Z,100.00
2022-08-16T02:30:44.234Z,100.00
2022-08-16T02:32:04.594Z,100.00
2022-08-16T02:33:24.867Z,100.00
2022-08-16T02:34:52.098Z,100.00
2022-08-16T02:36:01.370Z,100.00
2022-08-16T02:37:09.474Z,100.00
2022-08-16T02:38:15.291Z,100.00
2022-08-16T02:40:57.157Z,100.00
2022-08-16T02:42:05.475Z,100.00
2022-08-16T02:43:11.614Z,100.00
2022-08-16T02:44:18.246Z,100.00
2022-08-16T02:45:28.615Z,100.00
2022-08-16T02:46:35.198Z,100.00
2022-08-16T02:48:01.586Z,100.00
2022-08-16T02:49:58.581Z,100.00
2022-08-16T02:51:04.180Z,100.00
2022-08-16T02:52:17.223Z,100.00
2022-08-16T02:53:31.565Z,100.00
2022-08-16T02:54:40.431Z,100.00
2022-08-16T02:55:50.506Z,100.00
2022-08-16T02:56:56.243Z,100.00
2022-08-16T02:59:39.760Z,100.00
2022-08-16T03:00:50.235Z,100.00
2022-08-16T03:01:57.377Z,100.00
2022-08-16T03:03:03.399Z,100.00
2022-08-16T03:04:40.950Z,100.00
2022-08-16T03:05:35.611Z,100.00
2022-08-16T03:06:43.151Z,100.00
2022-08-16T03:07:50.975Z,100.00
2022-08-16T03:08:57.252Z,100.00
2022-08-16T03:10:12.043Z,100.00
2022-08-16T03:11:21.805Z,100.00
2022-08-16T03:12:30.069Z,100.00
2022-08-16T03:13:40.310Z,100.00
2022-08-16T03:14:47.967Z,100.00
2022-08-16T03:15:57.331Z,100.00
2022-08-16T03:17:03.262Z,100.00
2022-08-16T03:18:12.618Z,100.00
2022-08-16T03:19:59.908Z,100.00
2022-08-16T03:21:07.583Z,100.00
2022-08-16T03:22:19.136Z,100.00
2022-08-16T03:23:36.137Z,100.00
2022-08-16T03:24:42.540Z,100.00
2022-08-16T03:25:52.140Z,100.00
2022-08-16T03:27:03.986Z,100.00
2022-08-16T03:28:11.838Z,100.00
2022-08-16T03:29:16.857Z,100.00
2022-08-16T03:30:44.830Z,100.00
2022-08-16T03:31:52.724Z,100.00
2022-08-16T03:32:59.488Z,100.00
2022-08-16T03:34:19.953Z,100.00
2022-08-16T03:35:33.034Z,100.00
2022-08-16T03:36:51.433Z,100.00
2022-08-16T03:38:34.665Z,100.00
2022-08-16T03:39:45.080Z,100.00
2022-08-16T03:40:52.681Z,100.00
2022-08-16T03:42:00.348Z,100.00
2022-08-16T03:43:20.642Z,100.00
2022-08-16T03:44:44.709Z,100.00
2022-08-16T03:46:00.836Z,100.00
2022-08-16T03:47:10.842Z,100.00
2022-08-16T03:48:19.677Z,100.00
2022-08-16T03:49:41.667Z,100.00
2022-08-16T03:51:00.195Z,100.00
2022-08-16T03:52:11.194Z,100.00
2022-08-16T03:53:17.329Z,100.00
2022-08-16T03:54:23.818Z,100.00
2022-08-16T03:55:45.074Z,100.00
2022-08-16T03:56:57.024Z,100.00
2022-08-16T03:58:07.135Z,100.00
2022-08-16T03:59:16.072Z,100.00
2022-08-16T04:00:59.189Z,100.00
2022-08-16T04:02:12.989Z,100.00
2022-08-16T04:03:52.930Z,100.00
2022-08-16T04:05:03.882Z,100.00
2022-08-16T04:06:12.312Z,100.00
2022-08-16T04:07:18.561Z,100.00
2022-08-16T04:08:56.577Z,100.00
2022-08-16T04:10:27.996Z,100.00
2022-08-16T04:11:36.901Z,100.00
2022-08-16T04:13:04.479Z,100.00
2022-08-16T04:14:32.318Z,100.00
2022-08-16T04:15:49.475Z,100.00
2022-08-16T04:17:01.847Z,100.00
2022-08-16T04:18:10.168Z,100.00
2022-08-16T04:19:17.311Z,100.00
2022-08-16T04:20:41.280Z,100.00
2022-08-16T04:21:48.615Z,100.00
2022-08-16T04:22:55.342Z,100.00
2022-08-16T04:24:02.959Z,100.00
2022-08-16T04:25:10.596Z,100.00
2022-08-16T04:26:18.301Z,100.00
2022-08-16T04:27:31.499Z,100.00
2022-08-16T04:28:56.726Z,100.00
2022-08-16T04:30:10.754Z,100.00
2022-08-16T04:31:16.283Z,100.00
2022-08-16T04:32:23.559Z,100.00
2022-08-16T04:33:28.705Z,100.00
2022-08-16T04:34:47.374Z,100.00
2022-08-16T04:35:59.428Z,100.00
2022-08-16T04:37:06.963Z,100.00
2022-08-16T04:38:20.899Z,100.00
2022-08-16T04:39:46.680Z,100.00
2022-08-16T04:41:18.810Z,100.00
2022-08-16T04:42:41.598Z,100.00
2022-08-16T04:43:47.457Z,100.00
2022-08-16T04:44:56.363Z,100.00
2022-08-16T04:46:03.121Z,100.00
2022-08-16T04:47:21.494Z,100.00
2022-08-16T04:48:49.012Z,100.00
2022-08-16T04:50:18.893Z,100.00
2022-08-16T04:51:25.495Z,100.00
2022-08-16T04:52:34.694Z,100.00
2022-08-16T04:53:41.632Z,100.00
2022-08-16T04:54:46.341Z,100.00
2022-08-16T04:55:53.344Z,100.00
2022-08-16T04:57:02.688Z,100.00
2022-08-16T04:58:44.081Z,100.00
2022-08-16T04:59:56.993Z,100.00
2022-08-16T05:01:02.732Z,100.00
2022-08-16T05:02:41.989Z,100.00
2022-08-16T05:03:59.879Z,99.78
2022-08-16T05:05:07.352Z,99.59
2022-08-16T05:06:23.755Z,99.81
2022-08-16T05:07:59.450Z,99.64
2022-08-16T05:09:18.352Z,99.77
2022-08-16T05:10:31.244Z,99.56
2022-08-16T05:11:37.790Z,99.31
2022-08-16T05:12:47.148Z,99.28
2022-08-16T05:13:56.386Z,99.35
2022-08-16T05:15:15.312Z,98.75
2022-08-16T05:16:30.162Z,99.03
2022-08-16T05:17:37.005Z,98.76
2022-08-16T05:18:56.819Z,98.74
2022-08-16T05:20:39.581Z,98.46
2022-08-16T05:21:38.084Z,98.17
2022-08-16T05:22:45.583Z,98.20
2022-08-16T05:24:01.935Z,98.15
2022-08-16T05:25:13.149Z,98.21
2022-08-16T05:26:25.002Z,97.93
2022-08-16T05:27:49.832Z,97.55
2022-08-16T05:28:56.029Z,97.49
2022-08-16T05:30:33.954Z,97.23
2022-08-16T05:31:37.087Z,97.31
2022-08-16T05:32:56.313Z,97.01
2022-08-16T05:34:17.780Z,97.04
2022-08-16T05:35:26.734Z,97.11
2022-08-16T05:36:33.910Z,96.89
2022-08-16T05:37:44.674Z,96.80
2022-08-16T05:38:57.131Z,96.91
2022-08-16T05:40:07.140Z,97.01
2022-08-16T05:41:14.124Z,96.79
2022-08-16T05:42:35.790Z,96.32
2022-08-16T05:43:42.872Z,95.90
2022-08-16T05:44:50.127Z,95.45
2022-08-16T05:45:59.336Z,95.32
2022-08-16T05:47:05.092Z,94.92
2022-08-16T05:48:17.979Z,94.46
2022-08-16T05:49:25.337Z,93.42
2022-08-16T05:50:45.087Z,92.74
2022-08-16T05:52:00.551Z,91.39
2022-08-16T05:53:08.714Z,90.79
2022-08-16T05:54:25.265Z,89.74
2022-08-16T05:55:31.478Z,89.29
2022-08-16T05:56:42.922Z,88.60
2022-08-16T05:57:52.565Z,87.62
2022-08-16T05:59:19.395Z,86.05
2022-08-16T06:00:26.410Z,86.01
2022-08-16T06:01:32.855Z,85.50
2022-08-16T06:02:44.866Z,84.55
2022-08-16T06:03:49.861Z,83.75
2022-08-16T06:04:59.412Z,82.95
2022-08-16T06:06:05.450Z,82.27
2022-08-16T06:07:24.648Z,81.73
2022-08-16T06:08:44.736Z,80.99
2022-08-16T06:10:00.376Z,79.83
2022-08-16T06:11:10.335Z,79.63
2022-08-16T06:12:27.430Z,78.59
2022-08-16T06:13:49.027Z,76.91
2022-08-16T06:14:59.488Z,76.64
2022-08-16T06:16:39.755Z,76.44
2022-08-16T06:17:47.029Z,75.75
2022-08-16T06:19:00.497Z,74.32
2022-08-16T06:20:35.406Z,74.02
2022-08-16T06:21:41.625Z,72.19
2022-08-16T06:22:58.901Z,71.41
2022-08-16T06:24:53.752Z,69.59
2022-08-16T06:25:44.618Z,68.35
2022-08-16T06:27:05.838Z,68.10
2022-08-16T06:28:35.992Z,68.10
2022-08-16T06:29:50.092Z,66.87
2022-08-16T06:30:56.626Z,65.48
2022-08-16T06:32:04.736Z,63.80
2022-08-16T06:33:12.253Z,61.88
2022-08-16T06:34:57.191Z,59.37
2022-08-16T06:36:10.266Z,56.36
2022-08-16T06:37:18.357Z,54.79
2022-08-16T06:38:33.351Z,53.06
2022-08-16T06:39:50.462Z,50.85
2022-08-16T06:41:01.115Z,49.21
2022-08-16T06:42:08.395Z,47.34
2022-08-16T06:43:13.619Z,46.33
2022-08-16T06:44:41.175Z,43.82
2022-08-16T06:45:52.427Z,43.55
2022-08-16T06:46:58.803Z,42.57
2022-08-16T06:48:09.185Z,41.88
2022-08-16T06:49:18.278Z,40.78
2022-08-16T06:50:57.599Z,39.74
2022-08-16T06:52:04.865Z,39.02
2022-08-16T06:53:35.781Z,38.13
2022-08-16T06:54:41.992Z,38.22
2022-08-16T06:55:59.342Z,37.45
2022-08-16T06:57:16.757Z,37.17
2022-08-16T06:58:45.894Z,36.96
2022-08-16T06:59:53.080Z,36.98
2022-08-16T07:01:04.590Z,36.45
2022-08-16T07:02:51.695Z,35.66
2022-08-16T07:03:54.921Z,35.25
2022-08-16T07:05:02.356Z,34.56
2022-08-16T07:06:09.265Z,34.20
2022-08-16T07:07:22.142Z,33.83
2022-08-16T07:08:46.052Z,32.62
2022-08-16T07:09:54.901Z,32.36
2022-08-16T07:11:01.529Z,31.79
2022-08-16T07:12:17.316Z,31.50
2022-08-16T07:13:58.529Z,30.55
2022-08-16T07:14:49.358Z,30.62
2022-08-16T07:16:17.319Z,29.85
2022-08-16T07:17:46.550Z,29.68
2022-08-16T07:19:01.522Z,29.73
2022-08-16T07:20:35.002Z,29.90
2022-08-16T07:21:46.533Z,30.70
2022-08-16T07:23:13.269Z,32.10
2022-08-16T07:24:30.306Z,32.66
2022-08-16T07:25:40.455Z,32.85
2022-08-16T07:26:48.878Z,32.53
2022-08-16T07:27:54.830Z,32.93
2022-08-16T07:29:01.180Z,32.27
2022-08-16T07:30:45.663Z,32.66
2022-08-16T07:31:38.355Z,33.41
2022-08-16T07:32:51.806Z,34.10
2022-08-16T07:33:59.528Z,34.94
2022-08-16T07:35:05.834Z,35.50
2022-08-16T07:36:14.756Z,35.88
2022-08-16T07:37:28.438Z,36.28
2022-08-16T07:38:35.701Z,36.97
2022-08-16T07:39:43.192Z,37.27
2022-08-16T07:41:00.598Z,37.67
2022-08-16T07:42:20.294Z,37.62
2022-08-16T07:43:49.471Z,38.08
2022-08-16T07:45:17.414Z,37.90
2022-08-16T07:46:37.714Z,37.42
2022-08-16T07:47:51.419Z,37.37
2022-08-16T07:49:02.436Z,36.88
2022-08-16T07:50:57.297Z,36.07
2022-08-16T07:51:37.809Z,35.62
2022-08-16T07:52:45.565Z,35.25
2022-08-16T07:54:09.301Z,35.03
2022-08-16T07:55:21.106Z,34.48
2022-08-16T07:56:34.069Z,33.58
2022-08-16T07:57:58.136Z,32.77
2022-08-16T07:59:08.599Z,32.82
2022-08-16T08:00:20.283Z,32.61
2022-08-16T08:01:32.370Z,32.08
2022-08-16T08:02:39.921Z,32.20
2022-08-16T08:03:56.120Z,32.31
2022-08-16T08:05:03.458Z,32.04
2022-08-16T08:06:10.519Z,31.83
2022-08-16T08:07:18.565Z,30.97
2022-08-16T08:08:50.471Z,30.32
2022-08-16T08:09:53.007Z,29.51
2022-08-16T08:11:02.025Z,29.34
2022-08-16T08:12:32.510Z,29.24
2022-08-16T08:13:46.984Z,28.23
2022-08-16T08:14:52.426Z,27.73
2022-08-16T08:15:59.164Z,26.93
2022-08-16T08:17:08.660Z,26.08
2022-08-16T08:18:29.368Z,25.50
2022-08-16T08:19:36.585Z,24.41
2022-08-16T08:20:46.524Z,24.78
2022-08-16T08:22:07.634Z,25.58
2022-08-16T08:23:15.607Z,26.29
2022-08-16T08:24:44.821Z,27.26
2022-08-16T08:25:54.587Z,28.31
2022-08-16T08:27:06.906Z,28.82
2022-08-16T08:28:14.310Z,28.56
2022-08-16T08:29:37.544Z,28.57
2022-08-16T08:31:01.615Z,28.15
2022-08-16T08:32:57.427Z,26.99
2022-08-16T08:33:38.235Z,26.27
2022-08-16T08:34:49.502Z,25.40
2022-08-16T08:36:22.120Z,25.16
2022-08-16T08:37:28.107Z,24.01
2022-08-16T08:38:54.399Z,23.15
2022-08-16T08:39:59.392Z,22.67
2022-08-16T08:41:06.743Z,22.43
2022-08-16T08:42:12.478Z,22.49
2022-08-16T08:43:19.255Z,23.35
2022-08-16T08:44:27.889Z,23.31
2022-08-16T08:45:48.505Z,23.79
2022-08-16T08:47:11.067Z,24.42
2022-08-16T08:48:34.455Z,25.17
2022-08-16T08:49:46.544Z,25.24
2022-08-16T08:51:00.777Z,25.32
2022-08-16T08:52:34.128Z,25.41
2022-08-16T08:53:41.966Z,25.15
2022-08-16T08:54:49.026Z,24.98
2022-08-16T08:55:59.080Z,25.03
2022-08-16T08:57:07.550Z,24.78
2022-08-16T08:58:13.615Z,24.54
2022-08-16T08:59:24.079Z,24.38
2022-08-16T09:00:32.743Z,23.69
2022-08-16T09:01:58.699Z,23.35
2022-08-16T09:03:23.498Z,22.72
2022-08-16T09:04:33.425Z,22.38
2022-08-16T09:05:39.041Z,21.40
2022-08-16T09:06:50.959Z,22.02
2022-08-16T09:08:01.734Z,21.64
2022-08-16T09:09:17.630Z,21.59
2022-08-16T09:10:26.070Z,21.36
2022-08-16T09:11:41.051Z,21.34
2022-08-16T09:13:15.488Z,21.88
2022-08-16T09:14:24.003Z,22.50
2022-08-16T09:15:33.058Z,22.90
2022-08-16T09:17:00.797Z,23.98
2022-08-16T09:18:25.129Z,24.80
2022-08-16T09:19:40.701Z,25.52
2022-08-16T09:20:59.431Z,26.12
2022-08-16T09:22:08.134Z,26.67
2022-08-16T09:23:37.033Z,27.45
2022-08-16T09:24:52.184Z,27.81
2022-08-16T09:26:00.402Z,28.80
2022-08-16T09:27:08.118Z,29.73
2022-08-16T09:29:13.939Z,30.54
2022-08-16T09:29:45.689Z,31.53
2022-08-16T09:30:51.608Z,32.46
2022-08-16T09:32:00.338Z,33.00
2022-08-16T09:33:08.861Z,32.90
2022-08-16T09:34:25.494Z,33.66
2022-08-16T09:36:02.603Z,34.24
2022-08-16T09:37:18.075Z,34.77
2022-08-16T09:38:32.934Z,35.06
2022-08-16T09:39:41.280Z,35.36
2022-08-16T09:40:48.877Z,35.91
2022-08-16T09:41:59.996Z,35.97
2022-08-16T09:43:06.470Z,36.28
2022-08-16T09:45:10.952Z,36.68
2022-08-16T09:45:54.576Z,37.33
2022-08-16T09:47:00.479Z,37.42
2022-08-16T09:48:44.445Z,37.73
2022-08-16T09:49:45.890Z,38.00
2022-08-16T09:51:00.377Z,38.18
2022-08-16T09:52:09.611Z,38.67
2022-08-16T09:53:24.068Z,39.41
2022-08-16T09:54:32.677Z,39.22
2022-08-16T09:55:44.731Z,39.36
2022-08-16T09:56:53.301Z,39.57
2022-08-16T09:58:01.452Z,39.46
2022-08-16T09:59:12.201Z,39.83
2022-08-16T10:00:42.688Z,39.94
2022-08-16T10:01:59.423Z,39.77
2022-08-16T10:03:06.280Z,39.74
2022-08-16T10:04:29.276Z,40.29
2022-08-16T10:05:39.185Z,40.30
2022-08-16T10:06:47.271Z,40.76
2022-08-16T10:07:56.100Z,40.68
2022-08-16T10:09:08.475Z,41.02
2022-08-16T10:10:18.966Z,41.52
2022-08-16T10:12:11.564Z,42.10
2022-08-16T10:13:28.839Z,42.15
2022-08-16T10:14:35.891Z,42.33
2022-08-16T10:15:54.956Z,42.37
2022-08-16T10:17:05.684Z,42.02
2022-08-16T10:18:56.125Z,41.57
2022-08-16T10:19:41.637Z,42.00
2022-08-16T10:20:59.151Z,42.22
2022-08-16T10:22:06.530Z,42.06
2022-08-16T10:23:17.480Z,42.48
2022-08-16T10:24:28.662Z,42.74
2022-08-16T10:27:17.250Z,42.10
2022-08-16T10:27:25.177Z,42.03
2022-08-16T10:28:39.596Z,41.36
2022-08-16T10:30:00.359Z,42.01
2022-08-16T10:31:45.376Z,41.63
2022-08-16T10:33:03.207Z,40.57
2022-08-16T10:34:31.947Z,40.48
2022-08-16T10:35:46.585Z,40.37
2022-08-16T10:37:32.157Z,40.28
2022-08-16T10:38:42.289Z,39.95
2022-08-16T10:39:50.461Z,40.10
2022-08-16T10:41:32.723Z,40.64
2022-08-16T10:42:43.880Z,40.44
2022-08-16T10:43:53.852Z,40.98
2022-08-16T10:45:00.397Z,41.23
2022-08-16T10:46:33.754Z,41.48
2022-08-16T10:47:44.515Z,41.36
2022-08-16T10:49:21.806Z,41.66
2022-08-16T10:50:30.046Z,41.96
2022-08-16T10:52:02.444Z,42.19
2022-08-16T10:53:08.038Z,42.31
2022-08-16T10:54:28.883Z,42.54
2022-08-16T10:55:57.966Z,42.77
2022-08-16T10:57:07.527Z,43.19
2022-08-16T10:58:21.810Z,43.40
2022-08-16T10:59:54.492Z,43.61
2022-08-16T11:02:58.056Z,43.89
2022-08-16T11:05:04.611Z,44.30
2022-08-16T11:09:20.862Z,45.20
2022-08-16T11:10:57.200Z,45.78
2022-08-16T11:15:19.262Z,45.84
2022-08-16T11:19:25.325Z,45.87
2022-08-16T11:20:41.776Z,45.99
2022-08-16T11:23:20.437Z,46.12
2022-08-16T11:24:39.445Z,46.71
2022-08-16T11:26:07.753Z,46.49
2022-08-16T11:27:32.780Z,46.91
2022-08-16T11:30:19.812Z,47.12
2022-08-16T11:31:26.846Z,46.96
2022-08-16T11:32:33.969Z,47.22
2022-08-16T11:33:55.130Z,47.27
2022-08-16T11:35:14.577Z,47.74
2022-08-16T11:36:59.291Z,47.44
2022-08-16T11:38:47.055Z,48.17
2022-08-16T11:39:45.085Z,47.50
2022-08-16T11:41:15.251Z,47.71
2022-08-16T11:42:45.962Z,47.54
2022-08-16T11:43:51.931Z,47.81
2022-08-16T11:45:02.010Z,48.10
2022-08-16T11:46:43.501Z,47.78
2022-08-16T11:47:44.933Z,47.89
2022-08-16T11:48:53.433Z,47.63
2022-08-16T11:50:01.502Z,47.27
2022-08-16T11:51:17.189Z,47.37
2022-08-16T11:52:25.700Z,47.04
2022-08-16T11:53:36.206Z,46.88
2022-08-16T11:54:53.794Z,47.14
2022-08-16T11:56:03.245Z,47.55
2022-08-16T11:57:15.591Z,47.72
2022-08-16T11:58:24.731Z,47.27
2022-08-16T11:59:32.807Z,47.29
2022-08-16T12:00:51.277Z,47.38
2022-08-16T12:02:30.741Z,47.09
2022-08-16T12:03:35.794Z,47.97
2022-08-16T12:04:51.608Z,47.62
2022-08-16T12:06:03.453Z,48.10
2022-08-16T12:07:11.038Z,47.97
2022-08-16T12:08:26.005Z,48.29
2022-08-16T12:09:32.975Z,48.40
2022-08-16T12:10:47.313Z,48.02
2022-08-16T12:11:55.732Z,48.04
2022-08-16T12:13:02.776Z,47.98
2022-08-16T12:14:08.703Z,47.95
2022-08-16T12:15:16.045Z,48.10
2022-08-16T12:16:23.991Z,47.86
2022-08-16T12:17:43.841Z,47.79
2022-08-16T12:18:50.345Z,48.12
2022-08-16T12:20:18.798Z,48.27
2022-08-16T12:21:25.808Z,47.91
2022-08-16T12:22:43.192Z,48.22
2022-08-16T12:23:49.241Z,48.27
2022-08-16T12:24:55.741Z,48.03
2022-08-16T12:26:13.865Z,48.18
2022-08-16T12:27:23.264Z,48.32
2022-08-16T12:28:36.834Z,48.39
2022-08-16T12:29:58.525Z,48.10
2022-08-16T12:31:06.548Z,48.26
2022-08-16T12:32:38.453Z,48.03
2022-08-16T12:33:44.940Z,47.91
2022-08-16T12:34:53.068Z,48.10
2022-08-16T12:36:00.932Z,48.42
2022-08-16T12:37:11.655Z,48.46
2022-08-16T12:38:48.321Z,48.81
2022-08-16T12:39:58.672Z,48.77
2022-08-16T12:41:05.562Z,48.86
2022-08-16T12:42:13.642Z,49.26
2022-08-16T12:43:24.303Z,49.22
2022-08-16T12:44:31.431Z,49.31
2022-08-16T12:47:46.581Z,49.31
2022-08-16T12:49:05.285Z,50.06
2022-08-16T12:50:14.990Z,50.04
2022-08-16T12:51:24.596Z,50.25
2022-08-16T12:52:41.350Z,50.32
2022-08-16T12:53:57.161Z,50.58
2022-08-16T12:55:08.629Z,50.58
2022-08-16T12:56:15.116Z,50.60
2022-08-16T12:57:20.747Z,51.06
2022-08-16T12:58:47.537Z,51.00
2022-08-16T12:59:55.068Z,51.31
2022-08-16T13:01:03.441Z,50.92
2022-08-16T13:02:12.566Z,51.21
2022-08-16T13:03:40.027Z,51.55
2022-08-16T13:04:48.188Z,51.66
2022-08-16T13:05:57.800Z,51.19
2022-08-16T13:07:15.592Z,51.33
2022-08-16T13:08:21.113Z,51.24
2022-08-16T13:09:29.167Z,51.34
2022-08-16T13:10:37.639Z,51.14
2022-08-16T13:12:36.435Z,51.22
2022-08-16T13:14:08.583Z,51.05
2022-08-16T13:15:57.215Z,50.72
2022-08-16T13:17:18.835Z,50.54
2022-08-16T13:19:14.349Z,50.47
2022-08-16T13:20:26.540Z,50.22
2022-08-16T13:21:33.926Z,50.18
2022-08-16T13:22:47.987Z,49.89
2022-08-16T13:23:55.801Z,49.96
2022-08-16T13:25:06.699Z,50.07
2022-08-16T13:26:17.254Z,49.93
2022-08-16T13:28:02.019Z,49.92
2022-08-16T13:28:50.373Z,50.14
2022-08-16T13:29:57.831Z,50.05
2022-08-16T13:31:04.406Z,51.44
2022-08-16T13:32:39.754Z,51.44
2022-08-16T13:33:38.939Z,51.65
2022-08-16T13:34:49.956Z,51.89
2022-08-16T13:36:45.790Z,53.53
2022-08-16T13:37:41.843Z,53.25
2022-08-16T13:38:47.587Z,54.64
2022-08-16T13:39:57.077Z,54.12
2022-08-16T13:41:09.620Z,54.41
2022-08-16T13:42:22.007Z,54.76
2022-08-16T13:43:34.263Z,55.00
2022-08-16T13:44:56.240Z,55.21
2022-08-16T13:46:04.521Z,55.31
2022-08-16T13:47:10.142Z,55.27
2022-08-16T13:48:24.434Z,55.13
2022-08-16T13:49:32.575Z,55.33
2022-08-16T13:50:51.284Z,55.25
2022-08-16T13:51:58.301Z,55.37
2022-08-16T13:53:06.083Z,55.70
2022-08-16T13:54:13.548Z,56.05
2022-08-16T13:55:24.687Z,55.89
2022-08-16T13:56:38.726Z,55.73
2022-08-16T13:58:34.181Z,55.66
2022-08-16T13:59:21.227Z,55.70
2022-08-16T14:00:27.737Z,55.67
2022-08-16T14:01:36.486Z,55.50
2022-08-16T14:02:43.619Z,55.68
2022-08-16T14:03:49.594Z,55.40
2022-08-16T14:05:05.011Z,55.59
2022-08-16T14:08:13.806Z,55.70
2022-08-16T14:09:21.484Z,55.70
2022-08-16T14:10:28.972Z,55.15
2022-08-16T14:11:35.657Z,55.54
2022-08-16T14:12:44.764Z,55.42
2022-08-16T14:13:51.930Z,55.00
2022-08-16T14:15:00.996Z,55.15
2022-08-16T14:16:12.457Z,54.87
2022-08-16T14:18:15.453Z,54.59
2022-08-16T14:18:59.158Z,54.90
2022-08-16T14:20:07.764Z,54.56
2022-08-16T14:21:24.760Z,54.66
2022-08-16T14:22:40.123Z,54.98
2022-08-16T14:24:29.900Z,54.78
2022-08-16T14:25:36.257Z,54.24
2022-08-16T14:26:44.928Z,54.26
2022-08-16T14:30:43.150Z,53.67
2022-08-16T14:31:53.883Z,53.56
2022-08-16T14:33:00.877Z,53.40
2022-08-16T14:34:11.161Z,53.46
2022-08-16T14:35:49.085Z,53.15
2022-08-16T14:37:00.015Z,52.86
2022-08-16T14:38:05.212Z,52.63
2022-08-16T14:39:15.541Z,52.66
2022-08-16T14:40:20.901Z,52.77
2022-08-16T14:41:29.201Z,52.44
2022-08-16T14:42:36.813Z,52.71
2022-08-16T14:44:12.326Z,52.26
2022-08-16T14:45:27.153Z,51.70
2022-08-16T14:46:35.033Z,51.96
2022-08-16T14:47:39.759Z,51.78
2022-08-16T14:48:57.700Z,51.54
2022-08-16T14:50:06.996Z,51.44
2022-08-16T14:51:14.022Z,50.98
2022-08-16T14:52:44.335Z,50.95
2022-08-16T14:53:49.817Z,50.91
2022-08-16T14:55:13.232Z,51.48
2022-08-16T14:56:42.455Z,51.80
2022-08-16T14:57:44.764Z,52.75
2022-08-16T14:58:51.566Z,53.16
2022-08-16T15:00:18.718Z,53.74
2022-08-16T15:01:24.902Z,53.88
2022-08-16T15:02:55.650Z,54.17
2022-08-16T15:04:07.537Z,54.02
2022-08-16T15:05:15.033Z,54.36
2022-08-16T15:06:32.063Z,54.69
2022-08-16T15:07:46.241Z,55.13
2022-08-16T15:08:52.218Z,55.43
2022-08-16T15:10:01.207Z,55.33
2022-08-16T15:11:08.413Z,55.67
2022-08-16T15:12:26.771Z,56.47
2022-08-16T15:13:43.351Z,56.08
2022-08-16T15:14:53.193Z,56.85
2022-08-16T15:16:03.818Z,56.66
2022-08-16T15:17:09.288Z,56.43
2022-08-16T15:18:46.418Z,56.80
2022-08-16T15:19:53.874Z,56.58
2022-08-16T15:21:00.946Z,56.64
2022-08-16T15:22:17.851Z,57.09
2022-08-16T15:23:26.111Z,57.50
2022-08-16T15:24:32.711Z,57.59
2022-08-16T15:26:03.117Z,57.29
2022-08-16T15:27:10.703Z,57.36
2022-08-16T15:28:30.934Z,57.48
2022-08-16T15:29:38.056Z,57.70
2022-08-16T15:31:00.908Z,57.91
2022-08-16T15:32:09.978Z,57.53
2022-08-16T15:33:38.927Z,57.72
2022-08-16T15:34:51.226Z,57.39
2022-08-16T15:36:09.309Z,57.61
2022-08-16T15:37:17.459Z,57.51
2022-08-16T15:38:31.766Z,57.73
2022-08-16T15:39:53.815Z,57.82
2022-08-16T15:41:50.201Z,57.76
2022-08-16T15:42:57.853Z,57.82
2022-08-16T15:44:10.431Z,57.26
2022-08-16T15:45:37.745Z,57.19
2022-08-16T15:46:55.228Z,57.51
2022-08-16T15:48:05.647Z,57.21
2022-08-16T15:49:12.409Z,57.39
2022-08-16T15:50:43.204Z,57.18
2022-08-16T15:51:48.949Z,57.34
2022-08-16T15:53:17.701Z,57.58
2022-08-16T15:54:30.944Z,57.26
2022-08-16T15:55:39.095Z,57.48
2022-08-16T15:56:47.356Z,57.30
2022-08-16T15:57:53.958Z,57.04
2022-08-16T15:59:06.669Z,57.45
2022-08-16T16:00:15.891Z,57.04
2022-08-16T16:01:22.125Z,56.58
2022-08-16T16:02:31.446Z,56.96
2022-08-16T16:03:37.820Z,57.00
2022-08-16T16:04:45.607Z,57.17
2022-08-16T16:06:13.106Z,57.19
2022-08-16T16:07:20.299Z,56.65
2022-08-16T16:08:32.820Z,56.95
2022-08-16T16:09:38.842Z,56.84
2022-08-16T16:10:54.281Z,56.51
2022-08-16T16:12:34.160Z,56.92
2022-08-16T16:13:34.812Z,56.50
2022-08-16T16:14:41.479Z,56.51
2022-08-16T16:15:56.211Z,56.56
2022-08-16T16:17:16.151Z,56.65
2022-08-16T16:18:26.624Z,56.65
2022-08-16T16:19:44.897Z,56.36
2022-08-16T16:21:03.019Z,56.54
2022-08-16T16:22:07.939Z,56.64